createdAt,value
2023-01-29T00:00:10.852Z,101335.60
2023-01-29T00:02:59.279Z,101344.40
2023-01-29T00:05:28.597Z,101344.40
2023-01-29T00:07:57.511Z,101355.40
2023-01-29T00:10:26.507Z,101353.80
2023-01-29T00:12:54.729Z,101363.20
2023-01-29T00:15:22.753Z,101378.00
2023-01-29T00:17:50.718Z,101377.40
2023-01-29T00:20:19.353Z,101372.00
2023-01-29T00:22:47.554Z,101375.40
2023-01-29T00:25:15.443Z,101377.20
2023-01-29T00:27:44.819Z,101377.80
2023-01-29T00:30:13.705Z,101373.40
2023-01-29T00:32:42.222Z,101384.00
2023-01-29T00:35:10.544Z,101380.00
2023-01-29T00:37:38.696Z,101379.00
2023-01-29T00:40:07.474Z,101381.60
2023-01-29T00:42:54.227Z,101382.60
2023-01-29T00:45:22.109Z,101373.80
2023-01-29T00:47:50.071Z,101370.00
2023-01-29T00:50:18.633Z,101370.80
2023-01-29T00:52:48.740Z,101376.60
2023-01-29T00:55:16.647Z,101393.00
2023-01-29T00:57:44.573Z,101392.80
2023-01-29T01:00:17.788Z,101399.20
2023-01-29T01:03:04.828Z,101404.00
2023-01-29T01:05:32.948Z,101402.00
2023-01-29T01:08:00.822Z,101392.40
2023-01-29T01:10:33.435Z,101392.40
2023-01-29T01:13:06.305Z,101389.00
2023-01-29T01:15:38.691Z,101396.40
2023-01-29T01:18:07.218Z,101398.20
2023-01-29T01:20:36.893Z,101398.20
2023-01-29T01:23:05.354Z,101399.40
2023-01-29T01:25:34.082Z,101396.00
2023-01-29T01:28:02.081Z,101393.80
2023-01-29T01:30:30.100Z,101397.60
2023-01-29T01:32:58.065Z,101398.40
2023-01-29T01:35:25.927Z,101393.20
2023-01-29T01:37:53.914Z,101384.00
2023-01-29T01:40:25.628Z,101389.00
2023-01-29T01:42:58.612Z,101382.60
2023-01-29T01:45:36.477Z,101380.60
2023-01-29T01:48:13.255Z,101367.80
2023-01-29T01:50:52.958Z,101363.60
2023-01-29T01:53:34.561Z,101366.00
2023-01-29T01:56:09.587Z,101366.40
2023-01-29T01:58:45.452Z,101362.20
2023-01-29T02:01:13.795Z,101351.60
2023-01-29T02:04:13.964Z,101359.20
2023-01-29T02:07:02.715Z,101337.80
2023-01-29T02:09:39.772Z,101336.40
2023-01-29T02:12:13.409Z,101326.40
2023-01-29T02:14:43.468Z,101326.00
2023-01-29T02:17:15.784Z,101327.20
2023-01-29T02:20:26.874Z,101330.60
2023-01-29T02:22:59.190Z,101318.60
2023-01-29T02:25:52.775Z,101317.00
2023-01-29T02:28:49.158Z,101308.20
2023-01-29T02:31:44.339Z,101298.60
2023-01-29T02:34:54.849Z,101304.20
2023-01-29T02:37:39.913Z,101291.00
2023-01-29T02:40:25.808Z,101277.00
2023-01-29T02:43:06.330Z,101268.60
2023-01-29T02:45:53.128Z,101262.20
2023-01-29T02:48:24.984Z,101268.00
2023-01-29T02:51:02.058Z,101283.60
2023-01-29T02:53:46.047Z,101276.80
2023-01-29T02:56:21.861Z,101279.60
2023-01-29T02:59:05.133Z,101276.80
2023-01-29T03:01:46.676Z,101275.00
2023-01-29T03:04:24.489Z,101281.80
2023-01-29T03:07:03.449Z,101283.40
2023-01-29T03:09:42.872Z,101281.00
2023-01-29T03:12:34.193Z,101285.40
2023-01-29T03:15:16.933Z,101289.60
2023-01-29T03:17:58.282Z,101289.20
2023-01-29T03:20:48.381Z,101289.00
2023-01-29T03:23:48.191Z,101291.40
2023-01-29T03:26:38.728Z,101288.80
2023-01-29T03:29:28.222Z,101279.80
2023-01-29T03:32:04.562Z,101269.40
2023-01-29T03:34:43.866Z,101252.20
2023-01-29T03:37:27.419Z,101260.00
2023-01-29T03:39:55.694Z,101251.20
2023-01-29T03:42:45.328Z,101256.40
2023-01-29T03:45:42.927Z,101248.00
2023-01-29T03:48:58.525Z,101242.80
2023-01-29T03:52:06.888Z,101238.60
2023-01-29T03:55:07.012Z,101235.00
2023-01-29T03:57:47.578Z,101235.80
2023-01-29T04:00:32.135Z,101230.20
2023-01-29T04:03:37.461Z,101222.80
2023-01-29T04:06:18.750Z,101217.40
2023-01-29T04:09:01.313Z,101206.60
2023-01-29T04:11:31.197Z,101208.60
2023-01-29T04:13:59.535Z,101213.20
2023-01-29T04:16:35.050Z,101207.80
2023-01-29T04:19:04.375Z,101205.80
2023-01-29T04:21:33.198Z,101205.20
2023-01-29T04:24:01.093Z,101212.00
2023-01-29T04:26:48.601Z,101212.40
2023-01-29T04:29:32.281Z,101202.80
2023-01-29T04:32:19.159Z,101198.40
2023-01-29T04:34:52.518Z,101178.40
2023-01-29T04:37:37.657Z,101180.40
2023-01-29T04:40:21.994Z,101183.60
2023-01-29T04:43:18.628Z,101182.60
2023-01-29T04:46:07.617Z,101180.00
2023-01-29T04:49:05.199Z,101184.80
2023-01-29T04:51:56.152Z,101178.00
2023-01-29T04:54:51.146Z,101163.00
2023-01-29T04:57:46.300Z,101166.80
2023-01-29T05:00:29.738Z,101170.00
2023-01-29T05:03:00.639Z,101164.40
2023-01-29T05:05:31.007Z,101153.60
2023-01-29T05:07:59.890Z,101149.40
2023-01-29T05:10:28.867Z,101134.00
2023-01-29T05:13:05.837Z,101128.60
2023-01-29T05:15:45.079Z,101127.20
2023-01-29T05:18:13.435Z,101138.60
2023-01-29T05:20:44.635Z,101131.00
2023-01-29T05:23:20.911Z,101131.40
2023-01-29T05:25:52.059Z,101130.20
2023-01-29T05:28:20.074Z,101135.40
2023-01-29T05:30:51.746Z,101134.80
2023-01-29T05:33:31.535Z,101139.60
2023-01-29T05:36:00.309Z,101134.40
2023-01-29T05:38:28.196Z,101124.40
2023-01-29T05:40:59.674Z,101119.40
2023-01-29T05:43:27.581Z,101116.60
2023-01-29T05:45:59.065Z,101116.00
2023-01-29T05:48:29.393Z,101114.40
2023-01-29T05:51:05.342Z,101112.20
2023-01-29T05:53:33.802Z,101112.40
2023-01-29T05:56:04.227Z,101116.00
2023-01-29T05:58:33.445Z,101118.80
2023-01-29T06:01:21.279Z,101113.40
2023-01-29T06:03:49.863Z,101117.20
2023-01-29T06:06:18.014Z,101120.80
2023-01-29T06:08:46.777Z,101113.40
2023-01-29T06:11:18.249Z,101120.00
2023-01-29T06:13:46.556Z,101121.60
2023-01-29T06:16:15.748Z,101125.20
2023-01-29T06:18:43.691Z,101117.20
2023-01-29T06:21:13.925Z,101118.80
2023-01-29T06:23:41.823Z,101118.80
2023-01-29T06:26:14.478Z,101119.60
2023-01-29T06:28:43.841Z,101121.40
2023-01-29T06:31:30.383Z,101122.80
2023-01-29T06:34:00.268Z,101115.00
2023-01-29T06:36:28.232Z,101123.60
2023-01-29T06:38:56.135Z,101114.00
2023-01-29T06:41:25.709Z,101110.60
2023-01-29T06:43:53.686Z,101108.20
2023-01-29T06:46:21.630Z,101112.00
2023-01-29T06:48:49.497Z,101107.00
2023-01-29T06:51:17.846Z,101109.00
2023-01-29T06:53:46.605Z,101106.60
2023-01-29T06:56:14.792Z,101109.20
2023-01-29T06:58:43.712Z,101110.00
2023-01-29T07:01:25.351Z,101101.80
2023-01-29T07:04:00.934Z,101094.60
2023-01-29T07:06:30.921Z,101084.20
2023-01-29T07:08:58.859Z,101089.60
2023-01-29T07:11:26.737Z,101083.80
2023-01-29T07:13:54.572Z,101086.60
2023-01-29T07:16:23.565Z,101084.80
2023-01-29T07:18:51.460Z,101077.80
2023-01-29T07:21:19.522Z,101073.80
2023-01-29T07:23:53.249Z,101076.80
2023-01-29T07:26:21.295Z,101076.60
2023-01-29T07:28:49.117Z,101072.40
2023-01-29T07:31:17.104Z,101066.80
2023-01-29T07:33:45.560Z,101068.00
2023-01-29T07:36:14.452Z,101066.00
2023-01-29T07:38:42.309Z,101061.80
2023-01-29T07:41:12.361Z,101057.00
2023-01-29T07:43:40.164Z,101048.20
2023-01-29T07:46:08.606Z,101043.60
2023-01-29T07:48:36.847Z,101035.60
2023-01-29T07:51:05.906Z,101039.40
2023-01-29T07:53:33.835Z,101049.80
2023-01-29T07:56:02.521Z,101045.80
2023-01-29T07:58:30.691Z,101045.40
2023-01-29T08:00:58.789Z,101045.40
2023-01-29T08:03:26.691Z,101042.00
2023-01-29T08:05:54.485Z,101042.80
2023-01-29T08:08:22.349Z,101039.60
2023-01-29T08:10:50.263Z,101038.00
2023-01-29T08:13:18.164Z,101037.80
2023-01-29T08:15:46.466Z,101034.00
2023-01-29T08:18:15.333Z,101029.40
2023-01-29T08:20:43.166Z,101028.60
2023-01-29T08:23:16.658Z,101025.00
2023-01-29T08:25:44.973Z,101021.80
2023-01-29T08:28:29.538Z,101025.20
2023-01-29T08:30:58.878Z,101025.80
2023-01-29T08:33:38.697Z,101026.00
2023-01-29T08:36:08.806Z,101023.20
2023-01-29T08:38:36.938Z,101018.80
2023-01-29T08:41:05.388Z,101015.40
2023-01-29T08:43:37.054Z,101014.20
2023-01-29T08:46:06.814Z,101008.80
2023-01-29T08:48:35.186Z,101016.80
2023-01-29T08:51:04.497Z,101021.20
2023-01-29T08:53:33.313Z,101024.20
2023-01-29T08:56:01.510Z,101023.80
2023-01-29T08:58:29.546Z,101016.60
2023-01-29T09:00:57.616Z,101017.00
2023-01-29T09:03:25.616Z,101013.00
2023-01-29T09:05:53.529Z,101008.40
2023-01-29T09:08:21.429Z,101004.80
2023-01-29T09:10:49.485Z,101000.80
2023-01-29T09:13:17.291Z,101002.20
2023-01-29T09:15:45.221Z,101003.00
2023-01-29T09:18:13.781Z,100994.60
2023-01-29T09:20:41.729Z,101000.40
2023-01-29T09:23:11.462Z,101002.40
2023-01-29T09:25:39.359Z,100998.20
2023-01-29T09:28:07.249Z,101002.20
2023-01-29T09:30:37.947Z,101000.20
2023-01-29T09:33:07.441Z,100996.40
2023-01-29T09:35:35.797Z,100999.20
2023-01-29T09:38:06.710Z,100996.20
2023-01-29T09:41:08.307Z,100998.60
2023-01-29T09:43:49.909Z,100996.00
2023-01-29T09:46:21.019Z,100995.60
2023-01-29T09:49:01.882Z,100994.40
2023-01-29T09:51:43.453Z,100984.60
2023-01-29T09:54:29.567Z,100973.40
2023-01-29T09:57:03.665Z,100972.60
2023-01-29T09:59:32.685Z,100978.60
2023-01-29T10:02:19.545Z,100975.80
2023-01-29T10:05:15.750Z,100972.20
2023-01-29T10:08:21.916Z,100969.00
2023-01-29T10:11:25.111Z,100966.60
2023-01-29T10:14:08.272Z,100962.60
2023-01-29T10:17:08.382Z,100965.40
2023-01-29T10:20:05.622Z,100965.60
2023-01-29T10:23:34.356Z,100965.40
2023-01-29T10:26:02.911Z,100955.60
2023-01-29T10:28:48.564Z,100952.00
2023-01-29T10:31:39.090Z,100954.60
2023-01-29T10:34:41.407Z,100940.40
2023-01-29T10:37:24.462Z,100930.60
2023-01-29T10:39:52.358Z,100933.40
2023-01-29T10:42:46.464Z,100925.60
2023-01-29T10:45:48.241Z,100927.20
2023-01-29T10:48:37.438Z,100929.80
2023-01-29T10:51:36.531Z,100920.20
2023-01-29T10:54:59.806Z,100922.80
2023-01-29T10:58:02.243Z,100917.80
2023-01-29T11:00:39.727Z,100906.80
2023-01-29T11:03:27.902Z,100897.20
2023-01-29T11:06:19.299Z,100887.00
2023-01-29T11:08:56.765Z,100892.00
2023-01-29T11:11:50.397Z,100886.20
2023-01-29T11:14:42.884Z,100883.60
2023-01-29T11:17:27.366Z,100881.60
2023-01-29T11:19:56.113Z,100870.20
2023-01-29T11:22:28.009Z,100863.00
2023-01-29T11:25:17.526Z,100860.60
2023-01-29T11:28:05.386Z,100852.60
2023-01-29T11:30:39.518Z,100841.40
2023-01-29T11:33:19.687Z,100845.80
2023-01-29T11:35:48.025Z,100842.00
2023-01-29T11:38:15.817Z,100848.80
2023-01-29T11:40:45.188Z,100839.00
2023-01-29T11:43:28.045Z,100843.80
2023-01-29T11:46:07.378Z,100838.60
2023-01-29T11:48:45.314Z,100836.40
2023-01-29T11:51:25.591Z,100834.80
2023-01-29T11:53:59.969Z,100833.40
2023-01-29T11:56:43.848Z,100832.80
2023-01-29T11:59:44.234Z,100833.40
2023-01-29T12:02:34.407Z,100830.20
2023-01-29T12:05:14.875Z,100833.60
2023-01-29T12:07:51.697Z,100839.60
2023-01-29T12:10:39.159Z,100837.60
2023-01-29T12:13:10.061Z,100832.80
2023-01-29T12:15:40.717Z,100837.60
2023-01-29T12:18:32.315Z,100833.00
2023-01-29T12:21:04.779Z,100831.60
2023-01-29T12:24:00.493Z,100815.00
2023-01-29T12:26:38.192Z,100803.20
2023-01-29T12:29:25.933Z,100797.60
2023-01-29T12:32:26.421Z,100804.60
2023-01-29T12:35:06.318Z,100791.20
2023-01-29T12:38:01.076Z,100785.40
2023-01-29T12:40:43.087Z,100780.00
2023-01-29T12:43:19.068Z,100771.40
2023-01-29T12:45:54.226Z,100774.00
2023-01-29T12:48:30.782Z,100755.00
2023-01-29T12:51:26.189Z,100762.60
2023-01-29T12:54:10.882Z,100762.00
2023-01-29T12:56:50.860Z,100753.80
2023-01-29T13:00:04.885Z,100752.60
2023-01-29T13:02:43.035Z,100741.20
2023-01-29T13:05:24.738Z,100735.60
2023-01-29T13:08:14.553Z,100727.80
2023-01-29T13:10:49.282Z,100728.00
2023-01-29T13:13:36.352Z,100727.20
2023-01-29T13:16:12.728Z,100714.60
2023-01-29T13:19:01.639Z,100723.80
2023-01-29T13:21:43.011Z,100731.40
2023-01-29T13:24:26.257Z,100725.00
2023-01-29T13:26:56.628Z,100725.60
2023-01-29T13:29:31.208Z,100723.00
2023-01-29T13:32:03.170Z,100722.00
2023-01-29T13:34:36.890Z,100723.60
2023-01-29T13:37:16.871Z,100722.60
2023-01-29T13:39:53.300Z,100717.40
2023-01-29T13:42:42.852Z,100708.60
2023-01-29T13:45:22.897Z,100712.00
2023-01-29T13:47:53.302Z,100703.40
2023-01-29T13:50:41.291Z,100703.20
2023-01-29T13:53:25.326Z,100700.80
2023-01-29T13:55:53.531Z,100710.80
2023-01-29T13:58:33.566Z,100704.20
2023-01-29T14:01:01.977Z,100709.20
2023-01-29T14:03:40.012Z,100709.40
2023-01-29T14:06:40.510Z,100720.40
2023-01-29T14:09:37.751Z,100730.80
2023-01-29T14:12:25.930Z,100722.40
2023-01-29T14:14:56.951Z,100729.40
2023-01-29T14:17:27.571Z,100724.80
2023-01-29T14:20:04.284Z,100721.80
2023-01-29T14:22:34.761Z,100732.00
2023-01-29T14:25:06.134Z,100726.60
2023-01-29T14:27:36.984Z,100722.40
2023-01-29T14:30:14.318Z,100729.20
2023-01-29T14:32:49.460Z,100722.20
2023-01-29T14:35:33.894Z,100725.40
2023-01-29T14:38:06.738Z,100720.20
2023-01-29T14:40:37.377Z,100712.00
2023-01-29T14:43:20.187Z,100712.40
2023-01-29T14:45:49.675Z,100710.00
2023-01-29T14:48:45.981Z,100716.40
2023-01-29T14:51:18.078Z,100708.60
2023-01-29T14:53:56.163Z,100704.40
2023-01-29T14:56:40.807Z,100702.40
2023-01-29T14:59:24.024Z,100703.40
2023-01-29T15:01:58.277Z,100698.80
2023-01-29T15:04:44.604Z,100691.40
2023-01-29T15:07:29.185Z,100686.40
2023-01-29T15:10:23.375Z,100688.60
2023-01-29T15:13:09.512Z,100682.40
2023-01-29T15:15:59.059Z,100683.20
2023-01-29T15:18:43.225Z,100674.60
2023-01-29T15:21:18.195Z,100665.40
2023-01-29T15:23:50.938Z,100664.00
2023-01-29T15:26:24.771Z,100650.40
2023-01-29T15:29:05.048Z,100652.60
2023-01-29T15:31:35.639Z,100652.60
2023-01-29T15:34:07.735Z,100655.80
2023-01-29T15:36:37.491Z,100653.00
2023-01-29T15:39:16.854Z,100654.40
2023-01-29T15:41:46.001Z,100649.20
2023-01-29T15:44:26.932Z,100641.80
2023-01-29T15:47:00.681Z,100645.80
2023-01-29T15:49:35.852Z,100638.20
2023-01-29T15:52:28.059Z,100631.80
2023-01-29T15:55:01.984Z,100628.20
2023-01-29T15:57:37.759Z,100626.20
2023-01-29T16:00:13.951Z,100632.40
2023-01-29T16:02:45.017Z,100633.00
2023-01-29T16:05:23.115Z,100633.60
2023-01-29T16:07:56.025Z,100633.80
2023-01-29T16:10:32.676Z,100625.40
2023-01-29T16:13:01.521Z,100620.20
2023-01-29T16:15:40.339Z,100625.80
2023-01-29T16:18:28.550Z,100618.60
2023-01-29T16:21:02.294Z,100615.80
2023-01-29T16:23:44.374Z,100616.00
2023-01-29T16:26:22.360Z,100620.60
2023-01-29T16:28:50.748Z,100608.00
2023-01-29T16:31:30.085Z,100609.80
2023-01-29T16:34:43.605Z,100614.00
2023-01-29T16:38:06.500Z,100618.60
2023-01-29T16:40:44.034Z,100609.20
2023-01-29T16:43:20.719Z,100610.00
2023-01-29T16:46:26.840Z,100604.00
2023-01-29T16:49:26.629Z,100596.60
2023-01-29T16:52:18.146Z,100592.20
2023-01-29T16:54:48.200Z,100582.40
2023-01-29T16:57:31.923Z,100578.60
2023-01-29T17:00:06.534Z,100570.80
2023-01-29T17:02:39.379Z,100581.00
2023-01-29T17:05:17.815Z,100571.20
2023-01-29T17:07:47.341Z,100570.20
2023-01-29T17:10:21.841Z,100573.80
2023-01-29T17:12:59.718Z,100575.40
2023-01-29T17:15:47.062Z,100569.80
2023-01-29T17:18:22.746Z,100568.20
2023-01-29T17:20:54.636Z,100558.20
2023-01-29T17:23:23.156Z,100555.20
2023-01-29T17:25:51.940Z,100560.20
2023-01-29T17:28:22.994Z,100557.80
2023-01-29T17:31:05.274Z,100561.20
2023-01-29T17:33:39.776Z,100551.60
2023-01-29T17:36:17.045Z,100553.40
2023-01-29T17:38:45.903Z,100547.00
2023-01-29T17:41:30.655Z,100540.20
2023-01-29T17:43:58.496Z,100531.20
2023-01-29T17:46:27.702Z,100522.00
2023-01-29T17:48:55.935Z,100519.80
2023-01-29T17:51:25.001Z,100512.80
2023-01-29T17:53:53.156Z,100508.40
2023-01-29T17:56:29.695Z,100504.60
2023-01-29T17:58:57.565Z,100501.40
2023-01-29T18:01:25.641Z,100493.00
2023-01-29T18:03:53.817Z,100486.40
2023-01-29T18:06:30.042Z,100482.40
2023-01-29T18:09:00.363Z,100471.20
2023-01-29T18:11:28.669Z,100461.80
2023-01-29T18:13:57.374Z,100458.20
2023-01-29T18:16:26.144Z,100461.80
2023-01-29T18:18:54.751Z,100456.40
2023-01-29T18:21:22.857Z,100460.40
2023-01-29T18:23:50.792Z,100458.00
2023-01-29T18:26:18.749Z,100459.20
2023-01-29T18:28:46.895Z,100454.40
2023-01-29T18:31:14.993Z,100444.60
2023-01-29T18:33:43.195Z,100446.40
2023-01-29T18:36:11.429Z,100446.60
2023-01-29T18:38:39.835Z,100440.80
2023-01-29T18:41:10.874Z,100441.60
2023-01-29T18:43:41.932Z,100437.40
2023-01-29T18:46:10.435Z,100431.60
2023-01-29T18:48:39.194Z,100421.80
2023-01-29T18:51:08.459Z,100418.20
2023-01-29T18:53:38.463Z,100412.20
2023-01-29T18:56:07.912Z,100393.80
2023-01-29T18:58:37.294Z,100391.80
2023-01-29T19:01:09.845Z,100381.60
2023-01-29T19:03:40.625Z,100378.80
2023-01-29T19:06:11.278Z,100376.80
2023-01-29T19:08:41.309Z,100375.20
2023-01-29T19:11:09.754Z,100365.00
2023-01-29T19:13:38.522Z,100366.00
2023-01-29T19:16:10.136Z,100361.60
2023-01-29T19:18:39.034Z,100362.60
2023-01-29T19:21:11.859Z,100355.60
2023-01-29T19:23:41.305Z,100352.80
2023-01-29T19:26:10.799Z,100345.00
2023-01-29T19:28:39.593Z,100343.60
2023-01-29T19:31:09.443Z,100337.80
2023-01-29T19:33:39.860Z,100335.20
2023-01-29T19:36:10.019Z,100331.40
2023-01-29T19:38:38.909Z,100332.40
2023-01-29T19:41:07.053Z,100316.00
2023-01-29T19:43:35.112Z,100320.20
2023-01-29T19:46:03.202Z,100321.00
2023-01-29T19:48:32.583Z,100314.80
2023-01-29T19:51:13.409Z,100313.80
2023-01-29T19:53:45.205Z,100307.40
2023-01-29T19:56:20.061Z,100305.60
2023-01-29T19:58:57.570Z,100296.80
2023-01-29T20:01:26.240Z,100287.40
2023-01-29T20:03:55.391Z,100290.00
2023-01-29T20:06:33.672Z,100282.40
2023-01-29T20:09:08.835Z,100274.40
2023-01-29T20:11:40.033Z,100264.20
2023-01-29T20:14:08.358Z,100253.00
2023-01-29T20:16:38.596Z,100250.60
2023-01-29T20:19:14.334Z,100240.60
2023-01-29T20:21:49.219Z,100240.80
2023-01-29T20:24:18.167Z,100233.20
2023-01-29T20:26:46.437Z,100233.80
2023-01-29T20:29:25.511Z,100234.20
2023-01-29T20:32:00.673Z,100238.80
2023-01-29T20:34:29.255Z,100222.60
2023-01-29T20:36:59.881Z,100218.20
2023-01-29T20:39:30.150Z,100218.60
2023-01-29T20:42:03.101Z,100217.40
2023-01-29T20:44:31.144Z,100212.20
2023-01-29T20:47:10.664Z,100205.40
2023-01-29T20:49:39.258Z,100201.80
2023-01-29T20:52:09.055Z,100207.00
2023-01-29T20:54:38.507Z,100199.20
2023-01-29T20:57:09.615Z,100197.00
2023-01-29T20:59:39.529Z,100188.00
2023-01-29T21:02:11.141Z,100193.20
2023-01-29T21:04:45.263Z,100190.20
2023-01-29T21:07:13.712Z,100180.80
2023-01-29T21:09:48.206Z,100174.80
2023-01-29T21:12:17.134Z,100169.00
2023-01-29T21:14:47.167Z,100161.00
2023-01-29T21:17:15.608Z,100156.80
2023-01-29T21:19:44.455Z,100158.00
2023-01-29T21:22:17.959Z,100158.40
2023-01-29T21:24:50.125Z,100153.00
2023-01-29T21:27:18.563Z,100149.00
2023-01-29T21:29:46.784Z,100137.80
2023-01-29T21:32:16.756Z,100127.40
2023-01-29T21:34:51.651Z,100130.00
2023-01-29T21:37:21.068Z,100126.80
2023-01-29T21:39:49.445Z,100121.40
2023-01-29T21:42:40.610Z,100115.80
2023-01-29T21:45:09.739Z,100104.80
2023-01-29T21:47:37.620Z,100096.20
2023-01-29T21:50:06.357Z,100096.40
2023-01-29T21:52:34.315Z,100088.60
2023-01-29T21:55:02.903Z,100086.20
2023-01-29T21:57:31.223Z,100080.60
2023-01-29T21:59:59.630Z,100081.00
2023-01-29T22:02:30.962Z,100078.00
2023-01-29T22:05:17.510Z,100081.40
2023-01-29T22:07:46.063Z,100078.00
2023-01-29T22:10:15.687Z,100069.20
2023-01-29T22:12:44.868Z,100067.00
2023-01-29T22:15:13.559Z,100065.40
2023-01-29T22:17:41.807Z,100067.80
2023-01-29T22:20:13.332Z,100062.00
2023-01-29T22:22:41.914Z,100054.80
2023-01-29T22:25:10.248Z,100037.20
2023-01-29T22:27:38.645Z,100029.20
2023-01-29T22:30:07.631Z,100014.80
2023-01-29T22:32:35.826Z,100012.00
2023-01-29T22:35:04.141Z,100005.00
2023-01-29T22:37:32.026Z,99998.60
2023-01-29T22:40:00.030Z,99988.60
2023-01-29T22:42:28.022Z,99980.80
2023-01-29T22:44:55.963Z,99979.00
2023-01-29T22:47:23.891Z,99969.60
2023-01-29T22:49:52.565Z,99965.40
2023-01-29T22:52:22.377Z,99957.40
2023-01-29T22:54:51.597Z,99955.60
2023-01-29T22:57:20.100Z,99951.20
2023-01-29T22:59:47.966Z,99939.20
2023-01-29T23:02:15.952Z,99932.40
2023-01-29T23:04:43.907Z,99925.40
2023-01-29T23:07:11.757Z,99910.00
2023-01-29T23:09:39.642Z,99899.40
2023-01-29T23:12:08.053Z,99903.40
2023-01-29T23:14:35.886Z,99904.80
2023-01-29T23:17:03.746Z,99893.40
2023-01-29T23:19:31.589Z,99886.60
2023-01-29T23:21:59.832Z,99878.80
2023-01-29T23:24:27.705Z,99882.60
2023-01-29T23:27:14.325Z,99868.60
2023-01-29T23:29:47.699Z,99858.40
2023-01-29T23:32:20.076Z,99847.40
2023-01-29T23:34:47.971Z,99842.40
2023-01-29T23:37:15.856Z,99832.80
2023-01-29T23:39:43.735Z,99826.80
2023-01-29T23:42:11.617Z,99819.80
2023-01-29T23:44:40.502Z,99816.60
2023-01-29T23:47:09.552Z,99820.40
2023-01-29T23:49:37.552Z,99815.80
2023-01-29T23:52:05.859Z,99802.60
2023-01-29T23:54:33.769Z,99798.60
2023-01-29T23:57:01.705Z,99797.00
2023-01-29T23:59:29.621Z,99795.80
